Time;durP1;ratioP1;P1;durP2;ratioP2;P2;SDS_P1;SDS_P2;PMS_P1;PMS_P2;Temp;Humidity;BMP_temperature;BMP_pressure;BME280_temperature;BME280_humidity;BME280_pressure;Samples;Min_cycle;Max_cycle;Signal;HPM_P1;HPM_P2
2024/03/07 00:00:16;;;;;;;53.10;26.33;;;7.70;99.90;;;;;;5089513;28;20693;-71
2024/03/07 00:02:44;;;;;;;55.03;27.73;;;7.70;99.90;;;;;;5089664;28;20293;-72
2024/03/07 00:05:13;;;;;;;54.30;26.67;;;7.60;99.90;;;;;;5089447;28;20385;-72
2024/03/07 00:07:41;;;;;;;55.27;26.93;;;7.70;99.90;;;;;;5089408;28;20227;-72
2024/03/07 00:10:09;;;;;;;53.07;26.83;;;7.70;99.90;;;;;;5089376;28;20679;-72
2024/03/07 00:12:38;;;;;;;49.97;26.07;;;7.70;99.90;;;;;;5089028;28;20723;-71
2024/03/07 00:15:06;;;;;;;53.37;27.07;;;7.70;99.90;;;;;;5089547;28;20237;-72
2024/03/07 00:17:34;;;;;;;51.53;25.93;;;7.70;99.90;;;;;;5089238;28;20286;-72
2024/03/07 00:20:02;;;;;;;56.47;26.63;;;7.70;99.90;;;;;;5088901;28;20207;-72
2024/03/07 00:22:30;;;;;;;53.40;26.77;;;7.70;99.90;;;;;;5089139;28;20657;-73
2024/03/07 00:24:57;;;;;;;51.90;25.77;;;7.70;99.90;;;;;;5089076;28;20202;-72
2024/03/07 00:27:26;;;;;;;49.20;25.67;;;7.70;99.90;;;;;;5089010;28;20230;-73
2024/03/07 00:29:53;;;;;;;53.00;26.17;;;7.70;99.90;;;;;;5088976;28;20240;-73
2024/03/07 00:32:21;;;;;;;56.87;26.83;;;7.70;99.90;;;;;;5089075;28;20202;-73
2024/03/07 00:34:48;;;;;;;59.57;26.37;;;7.70;99.90;;;;;;5088702;28;20591;-72
2024/03/07 00:37:15;;;;;;;50.77;25.37;;;7.70;99.90;;;;;;5088766;28;20211;-72
2024/03/07 00:39:43;;;;;;;57.70;26.33;;;7.70;99.90;;;;;;5088259;28;20716;-72
2024/03/07 00:42:10;;;;;;;55.80;26.87;;;7.70;99.90;;;;;;5088673;28;20238;-73
2024/03/07 00:44:37;;;;;;;51.17;25.57;;;7.70;99.90;;;;;;5088341;28;20301;-72
2024/03/07 00:47:05;;;;;;;53.40;25.87;;;7.70;99.90;;;;;;5088137;28;20314;-72
2024/03/07 00:49:32;;;;;;;60.63;26.20;;;7.60;99.90;;;;;;5088429;28;20207;-72
2024/03/07 00:51:59;;;;;;;57.93;26.37;;;7.60;99.90;;;;;;5088139;28;20297;-72
2024/03/07 00:54:26;;;;;;;68.17;26.63;;;7.60;99.90;;;;;;5088152;28;20209;-72
2024/03/07 00:56:55;;;;;;;57.47;27.17;;;7.60;99.90;;;;;;5088040;28;20289;-72
2024/03/07 00:59:22;;;;;;;58.40;26.57;;;7.60;99.90;;;;;;5087677;28;20213;-73
2024/03/07 01:01:50;;;;;;;62.37;26.33;;;7.60;99.90;;;;;;5087984;28;20216;-71
2024/03/07 01:04:17;;;;;;;60.37;27.33;;;7.60;99.90;;;;;;5088466;28;20207;-72
2024/03/07 01:06:44;;;;;;;56.13;26.30;;;7.60;99.90;;;;;;5088438;28;20241;-73
2024/03/07 01:09:14;;;;;;;61.50;26.83;;;7.60;99.90;;;;;;5087659;28;20223;-72
2024/03/07 01:11:42;;;;;;;59.63;26.47;;;7.60;99.90;;;;;;5088347;28;20584;-72
2024/03/07 01:14:10;;;;;;;60.23;26.77;;;7.60;99.90;;;;;;5087020;28;20262;-72
2024/03/07 01:16:37;;;;;;;61.40;27.47;;;7.60;99.90;;;;;;5087670;28;20253;-72
2024/03/07 01:19:05;;;;;;;64.73;26.80;;;7.60;99.90;;;;;;5088006;28;20257;-73
2024/03/07 01:21:33;;;;;;;60.13;26.60;;;7.60;99.90;;;;;;5087853;28;20211;-72
2024/03/07 01:24:00;;;;;;;54.40;26.40;;;7.60;99.90;;;;;;5088009;28;20294;-72
2024/03/07 01:26:27;;;;;;;55.47;26.37;;;7.60;99.90;;;;;;5087033;28;20699;-72
2024/03/07 01:28:54;;;;;;;57.73;27.40;;;7.60;99.90;;;;;;5088102;28;20233;-72
2024/03/07 01:31:23;;;;;;;58.20;27.40;;;7.60;99.90;;;;;;5087744;28;20198;-72
2024/03/07 01:33:50;;;;;;;57.93;26.07;;;7.60;99.90;;;;;;5087754;28;20286;-73
2024/03/07 01:36:17;;;;;;;61.73;28.27;;;7.50;99.90;;;;;;5087616;28;20268;-72
2024/03/07 01:38:44;;;;;;;64.00;27.80;;;7.50;99.90;;;;;;5087470;28;20257;-73
2024/03/07 01:41:11;;;;;;;59.20;27.10;;;7.50;99.90;;;;;;5087330;28;20578;-73
2024/03/07 01:43:38;;;;;;;60.77;27.83;;;7.50;99.90;;;;;;5087440;28;20202;-73
2024/03/07 01:46:05;;;;;;;64.90;27.87;;;7.40;99.90;;;;;;5087692;28;20289;-73
2024/03/07 01:48:34;;;;;;;68.47;28.13;;;7.40;99.90;;;;;;5087389;28;20238;-73
2024/03/07 01:51:03;;;;;;;62.23;27.67;;;7.40;99.90;;;;;;5087490;28;20294;-74
2024/03/07 01:53:32;;;;;;;59.27;27.47;;;7.40;99.90;;;;;;5087670;28;20211;-74
2024/03/07 01:56:00;;;;;;;60.67;28.77;;;7.40;99.90;;;;;;5083587;28;20207;-72
2024/03/07 01:58:27;;;;;;;61.00;28.97;;;7.30;99.90;;;;;;5066904;28;20628;-72
2024/03/07 02:00:54;;;;;;;63.67;27.83;;;7.30;99.90;;;;;;5067074;28;20208;-72
2024/03/07 02:03:21;;;;;;;57.43;27.97;;;7.30;99.90;;;;;;5067203;28;20208;-72
2024/03/07 02:05:50;;;;;;;52.90;26.67;;;7.30;99.90;;;;;;5066953;28;20654;-72
2024/03/07 02:08:17;;;;;;;63.13;28.77;;;7.30;99.90;;;;;;5066930;28;20242;-72
2024/03/07 02:10:43;;;;;;;54.63;26.03;;;7.30;99.90;;;;;;5076296;28;20787;-70
2024/03/07 02:13:10;;;;;;;54.47;25.60;;;7.30;99.90;;;;;;5086310;28;20247;-70
2024/03/07 02:15:37;;;;;;;53.20;26.37;;;7.20;99.90;;;;;;5086963;28;20230;-71
2024/03/07 02:18:05;;;;;;;52.63;24.97;;;7.10;99.90;;;;;;5087279;28;20595;-71
2024/03/07 02:20:32;;;;;;;49.00;26.10;;;7.20;99.90;;;;;;5086859;28;20207;-73
2024/03/07 02:23:00;;;;;;;56.30;25.63;;;7.20;99.90;;;;;;5087065;28;20297;-72
2024/03/07 02:25:27;;;;;;;52.70;25.03;;;7.10;99.90;;;;;;5086083;28;20823;-71
2024/03/07 02:27:54;;;;;;;57.17;25.37;;;7.10;99.90;;;;;;5086624;28;20234;-73
2024/03/07 02:30:21;;;;;;;54.93;26.23;;;7.10;99.90;;;;;;5086351;28;20672;-72
2024/03/07 02:32:51;;;;;;;57.17;25.70;;;7.10;99.90;;;;;;5086840;28;20298;-72
2024/03/07 02:35:19;;;;;;;54.40;26.40;;;7.00;99.90;;;;;;5086707;28;20633;-72
2024/03/07 02:37:47;;;;;;;55.53;25.20;;;7.10;99.90;;;;;;5087084;28;20260;-72
2024/03/07 02:40:16;;;;;;;52.03;26.57;;;7.10;99.90;;;;;;5087003;28;20219;-72
2024/03/07 02:42:43;;;;;;;50.50;26.50;;;7.10;99.90;;;;;;5086802;28;20264;-72
2024/03/07 02:45:14;;;;;;;48.10;25.60;;;7.10;99.90;;;;;;5087077;28;20305;-72
2024/03/07 02:47:41;;;;;;;52.83;26.60;;;7.10;99.90;;;;;;5086734;28;20258;-72
2024/03/07 02:50:09;;;;;;;50.00;25.63;;;7.10;99.90;;;;;;5086849;28;20234;-72
2024/03/07 02:52:37;;;;;;;50.53;26.13;;;7.00;99.90;;;;;;5085998;28;20238;-72
2024/03/07 02:55:04;;;;;;;54.33;25.83;;;7.00;99.90;;;;;;5086708;28;20297;-72
2024/03/07 02:57:33;;;;;;;53.73;26.60;;;7.00;99.90;;;;;;5085760;28;20210;-72
2024/03/07 03:00:00;;;;;;;62.00;27.07;;;7.00;99.90;;;;;;5086083;28;20199;-72
2024/03/07 03:02:27;;;;;;;53.40;28.40;;;7.00;99.90;;;;;;5086649;28;20248;-72
2024/03/07 03:04:55;;;;;;;56.17;27.67;;;7.00;99.90;;;;;;5086458;28;20630;-72
2024/03/07 03:07:22;;;;;;;58.27;27.63;;;7.00;99.90;;;;;;5086347;28;20724;-72
2024/03/07 03:09:48;;;;;;;50.80;28.10;;;6.90;99.90;;;;;;5086319;28;20231;-72
2024/03/07 03:12:16;;;;;;;56.80;28.27;;;7.00;99.90;;;;;;5086053;28;20791;-72
2024/03/07 03:14:44;;;;;;;52.73;27.73;;;7.00;99.90;;;;;;5086288;28;20767;-72
2024/03/07 03:17:11;;;;;;;54.00;27.47;;;7.00;99.90;;;;;;5086397;28;20293;-73
2024/03/07 03:19:38;;;;;;;55.40;28.63;;;7.00;99.90;;;;;;5085864;28;20322;-73
2024/03/07 03:22:05;;;;;;;59.57;29.03;;;7.00;99.90;;;;;;5086201;28;20303;-73
2024/03/07 03:24:32;;;;;;;53.63;29.63;;;7.00;99.90;;;;;;5087241;28;20301;-71
2024/03/07 03:26:59;;;;;;;51.77;28.07;;;7.00;99.90;;;;;;5090008;28;20218;-71
2024/03/07 03:29:28;;;;;;;52.93;28.73;;;7.00;99.90;;;;;;5089627;28;20207;-71
2024/03/07 03:31:56;;;;;;;57.37;28.60;;;6.90;99.90;;;;;;5070034;28;20666;-71
2024/03/07 03:34:23;;;;;;;56.67;29.63;;;7.00;99.90;;;;;;5067818;28;20306;-71
2024/03/07 03:36:50;;;;;;;61.00;30.27;;;7.00;99.90;;;;;;5067991;28;20299;-71
2024/03/07 03:39:17;;;;;;;60.57;30.57;;;7.00;99.90;;;;;;5068098;28;20665;-72
2024/03/07 03:41:44;;;;;;;53.77;28.43;;;7.00;99.90;;;;;;5068171;28;20208;-71
2024/03/07 03:44:11;;;;;;;57.40;29.80;;;7.00;99.90;;;;;;5067984;28;21109;-72
2024/03/07 03:46:38;;;;;;;58.40;30.53;;;6.90;99.90;;;;;;5067429;28;20781;-70
2024/03/07 03:49:07;;;;;;;52.87;29.80;;;6.90;99.90;;;;;;5084722;28;20246;-71
2024/03/07 03:51:33;;;;;;;54.93;28.77;;;6.90;99.90;;;;;;5086733;28;20209;-71
2024/03/07 03:54:00;;;;;;;55.77;29.53;;;6.90;99.90;;;;;;5087589;28;20213;-70
2024/03/07 03:56:27;;;;;;;53.87;29.47;;;6.90;99.90;;;;;;5085532;28;20301;-71
2024/03/07 03:58:54;;;;;;;53.63;29.77;;;6.90;99.90;;;;;;5069594;28;20203;-71
2024/03/07 04:01:21;;;;;;;56.87;30.50;;;6.90;99.90;;;;;;5081955;28;20579;-71
2024/03/07 04:03:48;;;;;;;59.07;31.63;;;6.90;99.90;;;;;;5089330;28;20763;-71
2024/03/07 04:06:16;;;;;;;56.57;29.40;;;6.90;99.90;;;;;;5088200;28;20305;-71
2024/03/07 04:08:43;;;;;;;54.03;28.20;;;6.90;99.90;;;;;;5087974;28;20325;-71
2024/03/07 04:11:10;;;;;;;51.03;28.60;;;6.80;99.90;;;;;;5088705;28;20286;-71
2024/03/07 04:13:37;;;;;;;51.50;28.30;;;6.80;99.90;;;;;;5087873;28;20239;-71
2024/03/07 04:16:05;;;;;;;54.03;28.30;;;6.80;99.90;;;;;;5088029;28;20213;-71
2024/03/07 04:18:32;;;;;;;48.10;27.13;;;6.80;99.90;;;;;;5087707;28;20222;-71
2024/03/07 04:20:59;;;;;;;43.93;25.93;;;6.90;99.90;;;;;;5088883;28;20301;-71
2024/03/07 04:23:27;;;;;;;46.13;25.93;;;6.70;99.90;;;;;;5089202;28;20229;-71
2024/03/07 04:25:56;;;;;;;43.43;25.17;;;6.60;99.90;;;;;;5088120;28;20661;-70
2024/03/07 04:28:23;;;;;;;43.27;24.53;;;6.60;99.90;;;;;;5089049;28;20230;-70
2024/03/07 04:30:50;;;;;;;43.47;25.83;;;6.60;99.90;;;;;;5089218;28;20581;-71
2024/03/07 04:33:17;;;;;;;40.00;25.40;;;6.70;99.90;;;;;;5088921;28;20294;-71
2024/03/07 04:35:44;;;;;;;47.23;27.10;;;6.70;99.90;;;;;;5088692;28;20235;-71
2024/03/07 04:38:14;;;;;;;41.30;24.57;;;6.70;99.90;;;;;;5088819;28;20619;-70
2024/03/07 04:40:43;;;;;;;40.47;25.20;;;6.80;99.90;;;;;;5088665;28;20198;-70
2024/03/07 04:43:10;;;;;;;44.50;25.40;;;6.70;99.90;;;;;;5088403;28;20207;-71
2024/03/07 04:45:37;;;;;;;42.40;25.37;;;6.80;99.90;;;;;;5088491;28;20290;-71
2024/03/07 04:48:06;;;;;;;43.50;25.50;;;6.70;99.90;;;;;;5088934;28;20253;-71
2024/03/07 04:50:33;;;;;;;40.30;25.20;;;6.60;99.90;;;;;;5088611;28;20904;-71
2024/03/07 04:52:59;;;;;;;40.97;25.10;;;6.70;99.90;;;;;;5088781;28;20213;-71
2024/03/07 04:55:26;;;;;;;40.30;24.97;;;6.60;99.90;;;;;;5088410;28;20293;-71
2024/03/07 04:57:54;;;;;;;45.73;25.37;;;6.60;99.90;;;;;;5088570;28;20214;-71
2024/03/07 05:00:21;;;;;;;39.83;24.03;;;6.50;99.90;;;;;;5088111;28;20206;-71
2024/03/07 05:02:50;;;;;;;44.43;25.60;;;6.50;99.90;;;;;;5088307;28;20297;-71
2024/03/07 05:05:21;;;;;;;40.60;25.00;;;6.50;99.90;;;;;;5088509;28;20206;-71
2024/03/07 05:07:49;;;;;;;46.57;25.87;;;6.50;99.90;;;;;;5088242;28;20226;-71
2024/03/07 05:10:16;;;;;;;43.90;25.17;;;6.30;99.90;;;;;;5088375;28;20641;-71
2024/03/07 05:12:43;;;;;;;39.13;25.30;;;6.20;99.90;;;;;;5087963;28;20333;-71
2024/03/07 05:15:12;;;;;;;41.57;25.47;;;6.20;99.90;;;;;;5087854;28;20301;-71
2024/03/07 05:17:41;;;;;;;42.23;25.63;;;6.20;99.90;;;;;;5087870;28;20249;-71
2024/03/07 05:20:10;;;;;;;39.67;24.33;;;6.10;99.90;;;;;;5088336;28;20278;-71
2024/03/07 05:22:38;;;;;;;42.70;25.20;;;5.90;99.90;;;;;;5087714;28;20210;-71
2024/03/07 05:25:06;;;;;;;40.73;24.77;;;5.90;99.90;;;;;;5087769;28;20737;-71
2024/03/07 05:27:33;;;;;;;43.87;25.10;;;5.90;99.90;;;;;;5088017;28;20310;-71
2024/03/07 05:30:00;;;;;;;38.97;23.83;;;5.80;99.90;;;;;;5088005;28;20235;-71
2024/03/07 05:32:28;;;;;;;36.03;22.80;;;5.80;99.90;;;;;;5088083;28;20249;-71
2024/03/07 05:34:55;;;;;;;39.20;23.97;;;5.70;99.90;;;;;;5087680;28;20207;-71
2024/03/07 05:37:23;;;;;;;38.30;23.33;;;5.70;99.90;;;;;;5087909;28;20615;-71
2024/03/07 05:39:50;;;;;;;38.37;24.40;;;5.70;99.90;;;;;;5087053;28;20214;-71
2024/03/07 05:42:17;;;;;;;38.17;23.63;;;5.80;99.90;;;;;;5087591;28;20767;-71
2024/03/07 05:44:44;;;;;;;34.53;22.87;;;5.80;99.90;;;;;;5088075;28;20240;-71
2024/03/07 05:47:13;;;;;;;38.20;23.23;;;5.70;99.90;;;;;;5086928;28;20207;-71
2024/03/07 05:49:41;;;;;;;38.80;23.70;;;5.80;99.90;;;;;;5087410;28;20230;-71
2024/03/07 05:52:08;;;;;;;37.93;22.93;;;5.80;99.90;;;;;;5087362;28;20206;-71
2024/03/07 05:54:36;;;;;;;36.73;22.10;;;5.70;99.90;;;;;;5087146;28;20689;-71
2024/03/07 05:57:06;;;;;;;34.23;21.77;;;5.70;99.90;;;;;;5085354;28;20676;-72
2024/03/07 05:59:33;;;;;;;30.83;21.40;;;5.70;99.90;;;;;;5085825;28;20649;-71
2024/03/07 06:02:00;;;;;;;33.00;22.27;;;5.70;99.90;;;;;;5087378;28;20593;-72
2024/03/07 06:04:27;;;;;;;34.90;22.67;;;5.80;99.90;;;;;;5087390;28;20207;-71
2024/03/07 06:06:55;;;;;;;34.87;21.63;;;5.80;99.90;;;;;;5087172;28;20778;-71
2024/03/07 06:09:22;;;;;;;36.00;22.53;;;5.80;99.90;;;;;;5086778;28;20330;-72
2024/03/07 06:11:50;;;;;;;34.83;22.53;;;5.80;99.90;;;;;;5086632;28;20206;-71
2024/03/07 06:14:17;;;;;;;36.10;22.53;;;5.80;99.90;;;;;;5086764;28;20281;-71
2024/03/07 06:16:45;;;;;;;35.47;22.47;;;5.80;99.90;;;;;;5086928;28;20601;-71
2024/03/07 06:19:12;;;;;;;35.37;22.17;;;5.80;99.90;;;;;;5087036;28;20748;-72
2024/03/07 06:21:40;;;;;;;40.03;23.60;;;5.80;99.90;;;;;;5086751;28;20302;-71
2024/03/07 06:24:11;;;;;;;34.33;22.63;;;5.80;99.90;;;;;;5087041;28;20282;-71
2024/03/07 06:26:47;;;;;;;36.40;21.93;;;5.80;99.90;;;;;;5078701;28;20812;-71
2024/03/07 06:29:15;;;;;;;37.10;22.53;;;5.80;99.90;;;;;;5066949;28;20247;-71
2024/03/07 06:31:43;;;;;;;34.70;22.23;;;5.80;99.90;;;;;;5066455;28;20204;-71
2024/03/07 06:34:10;;;;;;;39.20;23.77;;;5.70;99.90;;;;;;5067098;28;20286;-71
2024/03/07 06:36:37;;;;;;;39.37;23.30;;;5.60;99.90;;;;;;5074367;28;20213;-72
2024/03/07 06:39:05;;;;;;;34.67;22.07;;;5.60;99.90;;;;;;5086820;28;20697;-71
2024/03/07 06:41:34;;;;;;;41.43;22.63;;;5.60;99.90;;;;;;5086209;28;20213;-72
2024/03/07 06:44:01;;;;;;;46.00;22.53;;;5.60;99.90;;;;;;5086309;28;20760;-71
2024/03/07 06:46:31;;;;;;;34.00;22.87;;;5.50;99.90;;;;;;5086807;28;20210;-71
2024/03/07 06:48:58;;;;;;;35.07;22.30;;;5.50;99.90;;;;;;5086521;28;20693;-71
2024/03/07 06:51:25;;;;;;;33.17;21.37;;;5.50;99.90;;;;;;5086733;28;20214;-72
2024/03/07 06:53:52;;;;;;;35.77;22.63;;;5.50;99.90;;;;;;5086504;28;20684;-71
2024/03/07 06:56:19;;;;;;;32.80;21.00;;;5.50;99.90;;;;;;5086464;28;20301;-72
2024/03/07 06:58:48;;;;;;;31.80;20.63;;;5.50;99.90;;;;;;5088141;28;20276;-71
2024/03/07 07:01:16;;;;;;;33.10;20.53;;;5.60;99.90;;;;;;5090599;28;20224;-71
2024/03/07 07:03:44;;;;;;;31.20;19.67;;;5.60;99.90;;;;;;5090356;28;20683;-71
2024/03/07 07:06:11;;;;;;;25.43;18.80;;;5.60;99.90;;;;;;5089977;28;20217;-71
2024/03/07 07:08:38;;;;;;;31.33;19.47;;;5.70;99.90;;;;;;5089984;28;20254;-71
2024/03/07 07:11:05;;;;;;;29.73;19.03;;;5.70;99.90;;;;;;5090530;28;20241;-71
2024/03/07 07:13:32;;;;;;;30.63;18.73;;;5.70;99.90;;;;;;5089991;28;20325;-71
2024/03/07 07:16:01;;;;;;;25.47;17.43;;;5.70;99.90;;;;;;5090246;28;20230;-71
2024/03/07 07:18:28;;;;;;;26.77;17.83;;;5.70;99.90;;;;;;5090065;28;20238;-71
2024/03/07 07:20:56;;;;;;;24.73;17.67;;;5.80;99.90;;;;;;5090308;28;20285;-71
2024/03/07 07:23:23;;;;;;;24.20;17.47;;;5.80;99.90;;;;;;5090165;28;20206;-71
2024/03/07 07:25:50;;;;;;;22.97;16.50;;;5.80;99.90;;;;;;5089866;28;20238;-71
2024/03/07 07:28:17;;;;;;;24.37;16.67;;;5.90;99.90;;;;;;5090010;28;20238;-70
2024/03/07 07:30:44;;;;;;;25.00;16.07;;;6.00;99.90;;;;;;5089774;28;20241;-71
2024/03/07 07:33:13;;;;;;;23.30;16.50;;;6.00;99.90;;;;;;5088048;28;20215;-71
2024/03/07 07:35:40;;;;;;;24.80;15.93;;;6.10;99.90;;;;;;5089519;28;20221;-71
2024/03/07 07:38:10;;;;;;;24.37;15.77;;;6.10;99.90;;;;;;5089978;28;20214;-71
2024/03/07 07:40:37;;;;;;;20.70;14.43;;;6.20;99.90;;;;;;5089834;28;20219;-71
2024/03/07 07:43:04;;;;;;;21.70;14.57;;;6.20;99.90;;;;;;5089855;28;20672;-71
2024/03/07 07:45:32;;;;;;;17.93;14.27;;;6.40;99.90;;;;;;5089833;28;20880;-71
2024/03/07 07:47:59;;;;;;;19.37;13.90;;;6.50;99.90;;;;;;5089963;28;20327;-71
2024/03/07 07:50:28;;;;;;;18.23;13.17;;;6.50;99.90;;;;;;5089662;28;20230;-71
2024/03/07 07:52:57;;;;;;;16.57;13.37;;;6.60;99.90;;;;;;5089942;28;20230;-71
2024/03/07 07:55:26;;;;;;;17.30;12.93;;;6.70;99.90;;;;;;5089653;28;20210;-71
2024/03/07 07:57:54;;;;;;;24.20;13.73;;;6.70;99.90;;;;;;5070774;28;20290;-71
2024/03/07 08:00:22;;;;;;;16.40;12.70;;;6.80;99.90;;;;;;5069352;28;20273;-72
2024/03/07 08:02:53;;;;;;;19.43;13.83;;;6.70;99.90;;;;;;5071326;28;20294;-71
2024/03/07 08:05:22;;;;;;;21.13;12.10;;;6.80;99.90;;;;;;5089610;28;20276;-72
2024/03/07 08:07:51;;;;;;;18.43;11.80;;;6.70;99.90;;;;;;5089372;28;20310;-72
2024/03/07 08:10:20;;;;;;;15.37;11.73;;;6.80;99.90;;;;;;5088485;28;20230;-72
2024/03/07 08:12:47;;;;;;;15.17;11.47;;;6.90;99.90;;;;;;5089317;28;20237;-71
2024/03/07 08:15:15;;;;;;;14.07;11.70;;;6.90;99.90;;;;;;5089231;28;20722;-71
2024/03/07 08:17:48;;;;;;;15.73;11.30;;;7.00;99.90;;;;;;5089335;28;20241;-71
2024/03/07 08:20:18;;;;;;;16.80;11.73;;;7.10;99.90;;;;;;5089318;28;20199;-71
2024/03/07 08:22:45;;;;;;;15.60;10.97;;;7.10;99.90;;;;;;5089060;28;20206;-72
2024/03/07 08:25:15;;;;;;;18.10;11.07;;;7.20;99.90;;;;;;5089036;28;20238;-72
2024/03/07 08:27:44;;;;;;;18.50;11.57;;;7.10;99.90;;;;;;5088733;28;20748;-72
2024/03/07 08:30:12;;;;;;;16.23;11.37;;;7.20;99.90;;;;;;5087232;28;20319;-72
2024/03/07 08:32:40;;;;;;;16.20;11.43;;;7.30;99.90;;;;;;5088946;28;20214;-72
2024/03/07 08:35:09;;;;;;;17.37;12.07;;;7.40;99.90;;;;;;5089197;28;20288;-72
2024/03/07 08:37:37;;;;;;;15.63;11.77;;;7.60;99.90;;;;;;5088838;28;20211;-72
2024/03/07 08:40:06;;;;;;;15.97;11.50;;;7.60;99.90;;;;;;5088905;28;20629;-72
2024/03/07 08:42:35;;;;;;;14.80;10.23;;;7.70;99.90;;;;;;5088235;28;20616;-72
2024/03/07 08:45:04;;;;;;;14.53;10.30;;;7.70;99.90;;;;;;5088844;28;20285;-72
2024/03/07 08:47:31;;;;;;;15.20;10.27;;;7.70;99.90;;;;;;5088493;28;20711;-72
2024/03/07 08:49:59;;;;;;;13.27;9.80;;;7.70;99.90;;;;;;5088481;28;20239;-72
2024/03/07 08:52:26;;;;;;;13.00;9.70;;;7.80;99.90;;;;;;5088573;28;20604;-72
2024/03/07 08:54:54;;;;;;;15.87;10.40;;;7.90;99.90;;;;;;5088526;28;20246;-72
2024/03/07 08:57:21;;;;;;;13.67;9.33;;;8.00;99.90;;;;;;5088240;28;20207;-72
2024/03/07 08:59:50;;;;;;;19.37;10.57;;;8.00;99.90;;;;;;5088378;28;20227;-72
2024/03/07 09:02:17;;;;;;;13.37;10.03;;;8.10;99.90;;;;;;5088538;28;20293;-72
2024/03/07 09:04:44;;;;;;;13.10;10.20;;;8.20;99.90;;;;;;5088696;28;20629;-72
2024/03/07 09:07:11;;;;;;;13.90;10.30;;;8.20;99.90;;;;;;5088254;28;20230;-72
2024/03/07 09:09:38;;;;;;;10.10;9.07;;;8.30;99.90;;;;;;5087715;28;20234;-72
2024/03/07 09:12:06;;;;;;;13.17;10.10;;;8.30;99.90;;;;;;5088387;28;20297;-71
2024/03/07 09:14:33;;;;;;;13.53;9.17;;;8.40;99.90;;;;;;5087897;28;20281;-71
2024/03/07 09:17:01;;;;;;;10.37;8.83;;;8.40;99.90;;;;;;5088088;28;20267;-71
2024/03/07 09:19:28;;;;;;;12.87;9.23;;;8.50;99.90;;;;;;5087884;28;20305;-71
2024/03/07 09:21:56;;;;;;;15.20;9.00;;;8.60;99.90;;;;;;5087079;28;20211;-72
2024/03/07 09:24:23;;;;;;;11.83;8.20;;;8.60;99.90;;;;;;5087777;28;20214;-71
2024/03/07 09:26:51;;;;;;;11.77;9.73;;;8.70;99.90;;;;;;5087866;28;20314;-70
2024/03/07 09:29:19;;;;;;;11.07;9.13;;;8.90;99.90;;;;;;5087782;28;20234;-71
2024/03/07 09:31:46;;;;;;;11.40;8.57;;;8.90;99.90;;;;;;5087836;28;20213;-70
2024/03/07 09:34:14;;;;;;;14.80;8.37;;;8.90;99.90;;;;;;5088132;28;20526;-70
2024/03/07 09:36:42;;;;;;;8.10;7.30;;;9.00;99.90;;;;;;5087771;28;20491;-71
2024/03/07 09:39:09;;;;;;;9.57;7.70;;;9.00;99.90;;;;;;5087945;28;20202;-71
2024/03/07 09:41:36;;;;;;;9.17;8.00;;;9.10;99.90;;;;;;5087506;28;20211;-70
2024/03/07 09:44:04;;;;;;;11.33;8.57;;;9.20;99.90;;;;;;5088036;28;20217;-71
2024/03/07 09:46:32;;;;;;;8.50;7.53;;;9.30;99.90;;;;;;5087777;28;20317;-70
2024/03/07 09:48:59;;;;;;;9.20;7.70;;;9.40;99.90;;;;;;5087610;28;20249;-70
2024/03/07 09:51:29;;;;;;;10.70;7.90;;;9.50;99.90;;;;;;5087420;28;20230;-71
2024/03/07 09:53:59;;;;;;;13.60;8.27;;;9.70;99.90;;;;;;5087765;28;20209;-71
2024/03/07 09:56:28;;;;;;;8.00;7.23;;;9.70;99.90;;;;;;5087042;28;20213;-71
2024/03/07 09:58:59;;;;;;;9.33;7.47;;;9.80;99.90;;;;;;5087403;28;20298;-72
2024/03/07 10:01:28;;;;;;;8.77;7.87;;;10.00;99.90;;;;;;5087298;28;20194;-72
2024/03/07 10:04:01;;;;;;;8.47;7.60;;;10.10;99.90;;;;;;5087277;28;20547;-70
2024/03/07 10:06:31;;;;;;;9.77;8.27;;;10.20;99.90;;;;;;5087304;28;20195;-71
2024/03/07 10:08:58;;;;;;;10.07;8.50;;;10.00;99.90;;;;;;5087106;28;20770;-71
2024/03/07 10:11:25;;;;;;;12.50;9.03;;;10.10;99.90;;;;;;5086567;28;20231;-71
2024/03/07 10:13:56;;;;;;;10.47;8.43;;;9.90;99.90;;;;;;5087078;28;20317;-71
2024/03/07 10:16:23;;;;;;;8.23;7.53;;;10.00;99.90;;;;;;5087085;28;20289;-71
2024/03/07 10:18:50;;;;;;;10.60;7.97;;;10.00;99.90;;;;;;5087294;28;20293;-71
2024/03/07 10:21:20;;;;;;;9.63;7.63;;;10.00;99.90;;;;;;5085532;28;20214;-71
2024/03/07 10:23:48;;;;;;;9.63;8.17;;;10.20;99.90;;;;;;5087430;28;20203;-71
2024/03/07 10:26:17;;;;;;;9.60;8.17;;;10.30;99.90;;;;;;5086582;28;20738;-71
2024/03/07 10:28:44;;;;;;;9.50;7.43;;;10.30;99.90;;;;;;5086906;28;20198;-71
2024/03/07 10:31:15;;;;;;;8.77;7.87;;;10.30;99.90;;;;;;5086901;28;20429;-72
2024/03/07 10:33:42;;;;;;;9.20;8.17;;;10.30;99.90;;;;;;5086548;28;20274;-72
2024/03/07 10:36:13;;;;;;;10.53;8.00;;;10.30;99.90;;;;;;5086942;28;20253;-72
2024/03/07 10:38:40;;;;;;;10.03;8.77;;;10.30;99.90;;;;;;5086597;28;20281;-72
2024/03/07 10:41:10;;;;;;;9.13;8.17;;;10.50;99.90;;;;;;5086964;28;20297;-72
2024/03/07 10:43:41;;;;;;;15.97;9.10;;;10.50;99.90;;;;;;5086705;28;20293;-71
2024/03/07 10:46:11;;;;;;;12.07;8.50;;;10.60;99.90;;;;;;5086682;28;20195;-72
2024/03/07 10:48:40;;;;;;;10.23;7.63;;;10.70;99.90;;;;;;5086792;28;20294;-72
2024/03/07 10:51:15;;;;;;;9.70;8.70;;;10.80;99.90;;;;;;5086516;28;20227;-72
2024/03/07 10:53:49;;;;;;;8.90;7.97;;;10.90;99.90;;;;;;5086332;28;20212;-72
2024/03/07 10:56:30;;;;;;;11.10;8.23;;;10.90;99.90;;;;;;5086710;28;20218;-71
2024/03/07 10:59:07;;;;;;;8.37;7.57;;;11.10;99.90;;;;;;5086916;28;20278;-72
2024/03/07 11:01:36;;;;;;;9.97;8.10;;;11.30;99.90;;;;;;5086239;28;20451;-72
2024/03/07 11:04:05;;;;;;;8.40;7.60;;;11.40;99.90;;;;;;5086703;28;20318;-72
2024/03/07 11:06:34;;;;;;;10.90;7.20;;;11.30;99.70;;;;;;5086936;28;20206;-71
2024/03/07 11:09:03;;;;;;;8.33;7.53;;;11.20;99.90;;;;;;5086652;28;20589;-71
2024/03/07 11:11:32;;;;;;;8.73;7.33;;;11.40;99.90;;;;;;5086286;28;20316;-72
2024/03/07 11:13:59;;;;;;;8.00;7.20;;;11.60;99.50;;;;;;5086232;28;20716;-71
2024/03/07 11:16:27;;;;;;;8.93;7.00;;;11.70;99.70;;;;;;5086707;28;20286;-71
2024/03/07 11:19:19;;;;;;;8.50;7.60;;;11.90;99.40;;;;;;5084830;28;20579;-72
2024/03/07 11:21:46;;;;;;;7.73;6.90;;;12.00;99.00;;;;;;5086973;28;20674;-72
2024/03/07 11:24:24;;;;;;;8.97;7.57;;;12.00;98.30;;;;;;5086501;28;20298;-71
2024/03/07 11:26:54;;;;;;;9.80;7.60;;;12.00;98.10;;;;;;5086731;28;20213;-72
2024/03/07 11:29:57;;;;;;;8.97;7.33;;;12.00;98.00;;;;;;5086705;28;20207;-71
2024/03/07 11:32:24;;;;;;;8.87;8.03;;;12.20;98.20;;;;;;5079618;28;20215;-72
2024/03/07 11:34:54;;;;;;;8.90;8.10;;;12.20;97.70;;;;;;5086312;28;20203;-71
2024/03/07 11:37:40;;;;;;;9.33;7.47;;;12.30;97.60;;;;;;5086496;28;20226;-71
2024/03/07 11:40:17;;;;;;;9.00;7.50;;;12.40;97.70;;;;;;5086274;28;20285;-71
2024/03/07 11:42:48;;;;;;;8.80;7.60;;;12.50;97.10;;;;;;5086124;28;20785;-72
2024/03/07 11:45:24;;;;;;;8.83;7.87;;;12.60;96.60;;;;;;5087478;28;20195;-71
2024/03/07 11:47:57;;;;;;;7.83;7.07;;;12.50;96.50;;;;;;5089690;28;20187;-72
2024/03/07 11:50:25;;;;;;;8.77;7.63;;;12.40;96.60;;;;;;5089765;28;20620;-72
2024/03/07 11:52:54;;;;;;;11.50;8.03;;;12.60;96.70;;;;;;5090135;28;20608;-72
2024/03/07 11:55:21;;;;;;;8.50;7.60;;;12.70;96.30;;;;;;5089524;28;20205;-72
2024/03/07 11:57:51;;;;;;;10.00;7.83;;;12.80;96.10;;;;;;5071000;28;20213;-72
2024/03/07 12:00:34;;;;;;;8.30;7.57;;;13.00;96.20;;;;;;5070008;28;20246;-72
2024/03/07 12:03:01;;;;;;;19.17;8.27;;;13.00;96.30;;;;;;5069446;28;20646;-72
2024/03/07 12:05:28;;;;;;;11.63;7.90;;;13.10;96.00;;;;;;5069023;28;20298;-72
2024/03/07 12:07:57;;;;;;;10.83;8.50;;;13.10;95.90;;;;;;5069400;28;20405;-71
2024/03/07 12:10:24;;;;;;;8.87;7.93;;;13.20;95.50;;;;;;5069262;28;20321;-72
2024/03/07 12:12:53;;;;;;;9.40;8.40;;;13.20;95.80;;;;;;5069178;28;20227;-72
2024/03/07 12:15:20;;;;;;;9.00;8.10;;;13.20;95.30;;;;;;5085341;28;20625;-72
2024/03/07 12:17:49;;;;;;;9.23;8.33;;;13.30;95.80;;;;;;5089014;28;20203;-73
2024/03/07 12:20:30;;;;;;;10.30;8.10;;;13.40;96.30;;;;;;5089247;28;20661;-72
2024/03/07 12:22:58;;;;;;;9.60;8.63;;;13.30;95.80;;;;;;5089724;28;20734;-72
2024/03/07 12:25:25;;;;;;;10.47;8.77;;;13.30;95.80;;;;;;5088806;28;20210;-71
2024/03/07 12:28:11;;;;;;;8.30;7.33;;;13.40;96.10;;;;;;5069973;28;20254;-71
2024/03/07 12:30:50;;;;;;;12.93;8.90;;;13.40;95.40;;;;;;5068558;28;20219;-72
2024/03/07 12:33:19;;;;;;;12.30;8.20;;;13.40;95.70;;;;;;5068964;28;20286;-72
2024/03/07 12:35:49;;;;;;;9.40;7.60;;;13.60;95.40;;;;;;5068614;28;20666;-72
2024/03/07 12:38:17;;;;;;;11.77;8.70;;;13.60;95.10;;;;;;5068648;28;20200;-72
2024/03/07 12:40:45;;;;;;;9.13;8.23;;;13.80;94.90;;;;;;5068418;28;20300;-71
2024/03/07 12:43:18;;;;;;;8.00;7.20;;;13.70;94.50;;;;;;5068619;28;20621;-71